Time;durP1;ratioP1;P1;durP2;ratioP2;P2;SDS_P1;SDS_P2;PMS_P1;PMS_P2;Temp;Humidity;BMP_temperature;BMP_pressure;BME280_temperature;BME280_humidity;BME280_pressure;Samples;Min_cycle;Max_cycle;Signal;HPM_P1;HPM_P2
2021/03/21 00:01:48;;;;;;;1.00;0.90;;;;;;;4.46;38.75;94636.03;5020733;28;20021;-88
2021/03/21 00:04:19;;;;;;;0.85;0.68;;;;;;;4.41;38.93;94627.94;5005503;28;20025;-89
2021/03/21 00:06:56;;;;;;;1.00;0.70;;;;;;;4.41;38.68;94633.88;5005889;28;20075;-88
2021/03/21 00:09:28;;;;;;;1.30;0.70;;;;;;;4.40;38.88;94636.63;5023124;28;20033;-88
2021/03/21 00:11:53;;;;;;;1.05;0.70;;;;;;;4.52;38.92;94660.34;5051471;28;20025;-89
2021/03/21 00:14:19;;;;;;;1.15;0.95;;;;;;;4.44;38.77;94643.09;5048291;28;20033;-88
2021/03/21 00:16:45;;;;;;;1.13;0.73;;;;;;;4.55;38.80;94657.44;4998667;28;20042;-89
2021/03/21 00:19:13;;;;;;;1.10;0.70;;;;;;;4.55;38.77;94660.03;5023119;28;20029;-88
2021/03/21 00:21:51;;;;;;;1.00;0.80;;;;;;;4.43;38.82;94642.25;5014829;28;20029;-88
2021/03/21 00:24:17;;;;;;;0.88;0.80;;;;;;;4.42;38.90;94635.53;5021932;28;20024;-88
2021/03/21 00:26:53;;;;;;;0.73;0.55;;;;;;;4.56;38.67;94653.94;5051026;28;20102;-88
2021/03/21 00:29:21;;;;;;;1.13;0.80;;;;;;;4.45;38.51;94634.41;5028644;28;20033;-88
2021/03/21 00:31:54;;;;;;;0.88;0.65;;;;;;;4.58;38.41;94649.44;5040603;28;20017;-88
2021/03/21 00:34:24;;;;;;;0.77;0.68;;;;;;;4.47;38.71;94632.47;5020895;28;20037;-88
2021/03/21 00:36:58;;;;;;;1.17;0.73;;;;;;;4.51;39.19;94631.19;5051251;28;20029;-89
2021/03/21 00:39:28;;;;;;;0.95;0.70;;;;;;;4.46;38.54;94623.16;5013362;28;20029;-89
2021/03/21 00:41:59;;;;;;;0.60;0.60;;;;;;;4.53;38.77;94639.56;5015313;28;20053;-89
2021/03/21 00:44:34;;;;;;;;;;;;;;;4.62;38.69;94645.56;5007377;28;20029;-89
2021/03/21 00:47:04;;;;;;;1.08;0.80;;;;;;;4.59;38.42;94638.97;5031094;28;19943;-88
2021/03/21 00:49:37;;;;;;;0.85;0.75;;;;;;;4.50;38.86;94616.72;5021789;28;20049;-88
2021/03/21 00:52:05;;;;;;;0.88;0.68;;;;;;;4.48;38.82;94623.78;5049242;28;20033;-88
2021/03/21 00:54:40;;;;;;;0.75;0.70;;;;;;;4.48;38.47;94627.16;5008600;28;20033;-90
2021/03/21 00:57:09;;;;;;;0.95;0.68;;;;;;;4.44;38.86;94627.66;5011774;28;20028;-89
2021/03/21 00:59:40;;;;;;;1.00;0.70;;;;;;;4.39;38.92;94614.41;5008893;28;20029;-88
2021/03/21 01:02:19;;;;;;;;;;;;;;;4.55;38.80;94626.53;5039596;28;20037;-89
2021/03/21 01:04:46;;;;;;;0.90;0.80;;;;;;;4.43;38.89;94605.41;5034374;28;19912;-88
2021/03/21 01:07:15;;;;;;;1.08;0.80;;;;;;;4.44;39.16;94604.47;5030714;28;20028;-88
2021/03/21 01:09:49;;;;;;;0.93;0.75;;;;;;;4.45;38.65;94608.66;5032483;28;20068;-88
2021/03/21 01:12:18;;;;;;;0.90;0.77;;;;;;;4.52;38.70;94616.56;5044198;28;20035;-89
2021/03/21 01:14:51;;;;;;;0.70;0.50;;;;;;;4.38;38.87;94597.34;5036547;28;20071;-88
2021/03/21 01:17:24;;;;;;;0.57;0.57;;;;;;;4.41;39.01;94597.03;5020989;28;20038;-89
2021/03/21 01:19:52;;;;;;;1.20;0.80;;;;;;;4.42;38.96;94598.69;5039284;28;20052;-88
2021/03/21 01:22:29;;;;;;;0.93;0.73;;;;;;;4.51;39.02;94610.59;5019325;28;20033;-88
2021/03/21 01:24:57;;;;;;;0.88;0.70;;;;;;;4.51;39.03;94613.16;5037084;28;20029;-88
2021/03/21 01:27:32;;;;;;;1.13;0.77;;;;;;;4.48;38.78;94608.34;5038038;28;20055;-88
2021/03/21 01:30:00;;;;;;;1.08;0.80;;;;;;;4.46;39.25;94605.13;5022648;28;20032;-88
2021/03/21 01:32:30;;;;;;;0.77;0.70;;;;;;;4.50;38.85;94602.06;5043271;28;20025;-88
2021/03/21 01:35:07;;;;;;;1.63;0.80;;;;;;;4.47;38.89;94597.25;5030844;28;20086;-89
2021/03/21 01:37:35;;;;;;;0.90;0.77;;;;;;;4.52;39.33;94599.34;5033381;28;20036;-88
2021/03/21 01:40:10;;;;;;;1.30;0.82;;;;;;;4.52;39.33;94601.91;5034454;28;20101;-89
2021/03/21 01:42:38;;;;;;;1.13;0.70;;;;;;;4.52;38.96;94599.34;5007358;28;20017;-89
2021/03/21 01:45:28;;;;;;;1.23;0.93;;;;;;;4.56;39.37;94597.28;5002136;28;20128;-88
2021/03/21 01:47:57;;;;;;;1.05;0.80;;;;;;;4.52;39.19;94589.03;5036428;28;20020;-89
2021/03/21 01:50:36;;;;;;;0.75;0.70;;;;;;;4.54;38.96;94587.13;5003364;28;20104;-88
2021/03/21 01:53:01;;;;;;;0.73;0.73;;;;;;;4.51;39.11;94577.13;5023398;28;20037;-88
2021/03/21 01:55:34;;;;;;;3.22;1.27;;;;;;;4.54;39.29;94571.66;5043547;28;20067;-89
2021/03/21 01:58:03;;;;;;;1.77;1.00;;;;;;;4.58;39.38;94578.13;5035648;28;20078;-89
2021/03/21 02:00:36;;;;;;;1.30;0.88;;;;;;;4.51;39.43;94556.50;5021405;28;20060;-89
2021/03/21 02:03:06;;;;;;;1.58;0.68;;;;;;;4.53;38.95;94567.47;5042209;28;20064;-89
2021/03/21 02:05:37;;;;;;;1.48;0.93;;;;;;;4.54;39.09;94556.22;5036747;28;20025;-89
2021/03/21 02:08:32;;;;;;;1.10;0.90;;;;;;;4.58;39.05;94561.88;5004607;28;20037;-88
2021/03/21 02:11:26;;;;;;;0.88;0.70;;;;;;;4.56;38.92;94549.13;4992936;28;20044;-87
2021/03/21 02:14:15;;;;;;;1.15;0.73;;;;;;;4.64;39.32;94559.44;4976603;28;20283;-88
2021/03/21 02:16:59;;;;;;;1.20;0.80;;;;;;;4.61;38.90;94546.09;4980396;28;20065;-88
2021/03/21 02:19:59;;;;;;;0.73;0.70;;;;;;;4.55;39.27;94542.38;4994850;28;20048;-88
2021/03/21 02:22:49;;;;;;;0.70;0.70;;;;;;;4.64;39.19;94549.16;4979607;28;20085;-88
2021/03/21 02:25:36;;;;;;;0.90;0.73;;;;;;;4.64;39.39;94544.00;4953756;28;20039;-88
2021/03/21 02:28:52;;;;;;;0.63;0.63;;;;;;;4.64;39.36;94535.47;4964884;28;20043;-88
2021/03/21 02:31:22;;;;;;;1.02;0.80;;;;;;;4.49;39.12;94509.50;4909146;29;20036;-89
2021/03/21 02:34:05;;;;;;;0.88;0.80;;;;;;;4.60;39.08;94529.81;4888600;29;20124;-91
2021/03/21 02:37:11;;;;;;;0.88;0.63;;;;;;;4.61;38.94;94538.38;4897767;29;20095;-88
2021/03/21 02:40:03;;;;;;;1.00;0.80;;;;;;;4.59;38.96;94535.94;4903902;29;20064;-88
2021/03/21 02:42:31;;;;;;;0.90;0.68;;;;;;;4.59;39.09;94532.56;4915529;29;20051;-89
2021/03/21 02:45:03;;;;;;;0.85;0.60;;;;;;;4.50;39.43;94514.50;4915608;29;20123;-89
2021/03/21 02:47:29;;;;;;;0.50;0.50;;;;;;;4.56;38.92;94520.81;4908111;29;20040;-89
2021/03/21 02:50:07;;;;;;;1.05;0.70;;;;;;;4.56;38.94;94520.00;4835569;29;20044;-89
2021/03/21 02:52:37;;;;;;;1.00;0.80;;;;;;;4.57;39.63;94519.84;4870493;29;20035;-89
2021/03/21 02:55:21;;;;;;;0.57;0.52;;;;;;;4.58;38.86;94515.50;4915736;29;20124;-89
2021/03/21 02:57:50;;;;;;;1.48;0.70;;;;;;;4.56;39.15;94531.09;4904670;29;20032;-89
2021/03/21 03:00:19;;;;;;;0.93;0.70;;;;;;;4.48;39.45;94503.56;4906994;29;20027;-89
2021/03/21 03:02:53;;;;;;;1.38;0.80;;;;;;;4.54;39.28;94509.84;4918717;28;20061;-89
2021/03/21 03:05:32;;;;;;;1.30;0.85;;;;;;;4.59;39.54;94510.19;4950876;28;20030;-89
2021/03/21 03:08:30;;;;;;;1.05;0.70;;;;;;;4.60;39.30;94511.78;5008820;28;20041;-89
2021/03/21 03:11:02;;;;;;;0.95;0.73;;;;;;;4.58;39.15;94508.56;5031765;28;20021;-88
2021/03/21 03:13:36;;;;;;;1.67;0.70;;;;;;;4.60;39.04;94509.22;5017149;28;20029;-88
2021/03/21 03:16:07;;;;;;;0.68;0.57;;;;;;;4.58;39.24;94513.72;5059580;28;20029;-88
2021/03/21 03:19:09;;;;;;;0.63;0.55;;;;;;;4.61;39.31;94531.44;5019802;28;20078;-89
2021/03/21 03:21:45;;;;;;;0.70;0.65;;;;;;;4.60;39.10;94527.25;5015328;28;20044;-88
2021/03/21 03:24:19;;;;;;;1.00;0.80;;;;;;;4.61;39.45;94525.50;5016039;28;20104;-89
2021/03/21 03:26:53;;;;;;;0.75;0.70;;;;;;;4.58;39.13;94513.72;5017666;28;20039;-88
2021/03/21 03:29:24;;;;;;;1.13;0.60;;;;;;;4.59;39.75;94517.94;5018836;28;20031;-89
2021/03/21 03:31:50;;;;;;;;;;;;;;;4.64;39.43;94517.44;5034319;28;20124;-88
2021/03/21 03:34:16;;;;;;;0.77;0.63;;;;;;;4.61;39.10;94516.00;5032744;28;19913;-89
2021/03/21 03:36:41;;;;;;;0.98;0.80;;;;;;;4.59;39.49;94510.19;5028670;28;20036;-88
2021/03/21 03:39:07;;;;;;;1.08;0.70;;;;;;;4.59;39.62;94507.63;4995841;28;20037;-89
2021/03/21 03:41:59;;;;;;;0.63;0.52;;;;;;;4.57;39.47;94499.25;5040781;28;20033;-89
2021/03/21 03:44:32;;;;;;;1.08;0.73;;;;;;;4.60;39.37;94503.28;5020019;28;20104;-89
2021/03/21 03:47:32;;;;;;;0.98;0.70;;;;;;;4.61;39.20;94503.13;5023811;28;20117;-89
2021/03/21 03:49:59;;;;;;;0.68;0.52;;;;;;;4.57;39.43;94483.81;5023926;28;20036;-89
2021/03/21 03:52:43;;;;;;;0.70;0.57;;;;;;;4.60;39.56;94486.03;5016279;28;20029;-89
2021/03/21 03:56:03;;;;;;;0.95;0.75;;;;;;;4.54;39.55;94468.66;5018798;28;20083;-89
2021/03/21 03:58:51;;;;;;;1.00;0.70;;;;;;;4.61;39.37;94479.94;4961309;28;20038;-89
2021/03/21 04:01:33;;;;;;;1.05;0.80;;;;;;;4.53;39.35;94467.03;4979826;28;20057;-88
2021/03/21 04:04:08;;;;;;;0.90;0.70;;;;;;;4.60;39.65;94468.00;4944044;28;20038;-89
2021/03/21 04:06:59;;;;;;;0.77;0.63;;;;;;;4.55;39.25;94464.28;4941649;28;20041;-89
2021/03/21 04:09:34;;;;;;;0.77;0.60;;;;;;;4.55;39.15;94459.16;4945720;28;20038;-89
2021/03/21 04:12:17;;;;;;;0.77;0.70;;;;;;;4.44;39.29;94448.19;4958483;28;20125;-88
2021/03/21 04:14:49;;;;;;;1.00;0.60;;;;;;;4.55;39.07;94454.00;4951528;28;20041;-89
2021/03/21 04:17:36;;;;;;;0.85;0.75;;;;;;;4.62;39.34;94458.34;4943003;28;20120;-88
2021/03/21 04:20:08;;;;;;;1.25;0.80;;;;;;;4.62;39.29;94458.34;4943911;28;20098;-90
2021/03/21 04:22:43;;;;;;;0.70;0.70;;;;;;;4.62;39.55;94455.78;4975220;28;20045;-89
2021/03/21 04:25:17;;;;;;;1.00;0.68;;;;;;;4.62;39.63;94455.78;4944573;28;20190;-89
2021/03/21 04:27:51;;;;;;;1.00;0.80;;;;;;;4.57;39.71;94445.16;4951276;28;20037;-90
2021/03/21 04:30:42;;;;;;;1.77;1.00;;;;;;;4.58;39.31;94436.47;5013642;28;20033;-89
2021/03/21 04:33:15;;;;;;;0.70;0.68;;;;;;;4.58;39.26;94444.19;4996134;28;20041;-90
2021/03/21 04:35:50;;;;;;;0.90;0.70;;;;;;;4.56;39.43;94451.28;4998173;28;20072;-89
2021/03/21 04:38:33;;;;;;;0.85;0.70;;;;;;;4.42;39.85;94428.75;4995725;28;20099;-89
2021/03/21 04:41:01;;;;;;;0.77;0.68;;;;;;;4.50;39.51;94433.88;4997908;28;20030;-89
2021/03/21 04:43:45;;;;;;;0.90;0.75;;;;;;;4.54;39.41;94437.75;4981883;28;20053;-88
2021/03/21 04:46:21;;;;;;;0.60;0.60;;;;;;;4.54;39.41;94442.09;5007348;28;20025;-88
2021/03/21 04:48:53;;;;;;;1.02;0.77;;;;;;;4.54;39.92;94450.63;4981713;28;20025;-89
2021/03/21 04:51:31;;;;;;;1.08;0.77;;;;;;;4.54;39.50;94440.31;4997061;28;20048;-90
2021/03/21 04:54:13;;;;;;;1.25;0.80;;;;;;;4.50;39.36;94441.59;4997308;28;20053;-89
2021/03/21 04:56:46;;;;;;;1.00;0.80;;;;;;;4.47;39.83;94436.78;5014881;28;20038;-90
2021/03/21 04:59:17;;;;;;;1.13;0.77;;;;;;;4.52;39.46;94436.31;5013858;28;20029;-89
2021/03/21 05:02:16;;;;;;;0.70;0.70;;;;;;;4.60;39.48;94451.75;5013704;28;20068;-90
2021/03/21 05:04:49;;;;;;;0.60;0.60;;;;;;;4.60;39.62;94451.75;5005126;28;20034;-89
2021/03/21 05:07:23;;;;;;;1.10;0.90;;;;;;;4.62;39.69;94454.97;4997847;28;20064;-90
2021/03/21 05:09:49;;;;;;;1.00;0.70;;;;;;;4.54;39.94;94435.16;5017024;28;20106;-89
2021/03/21 05:12:21;;;;;;;1.13;0.90;;;;;;;4.57;39.71;94440.03;5031081;28;20025;-89
2021/03/21 05:15:16;;;;;;;0.70;0.70;;;;;;;4.55;39.90;94429.06;4999036;28;20025;-90
2021/03/21 05:18:11;;;;;;;1.00;0.68;;;;;;;4.66;39.89;94436.50;5029113;28;20032;-89
2021/03/21 05:21:09;;;;;;;0.60;0.60;;;;;;;4.68;39.38;94439.69;4977320;28;20033;-90
2021/03/21 05:24:09;;;;;;;0.93;0.75;;;;;;;4.68;39.67;94442.28;4990195;28;20045;-89
2021/03/21 05:26:53;;;;;;;0.88;0.73;;;;;;;4.67;39.28;94432.94;5003144;28;20109;-89
2021/03/21 05:29:47;;;;;;;1.05;0.90;;;;;;;4.66;39.62;94430.50;4974031;28;20109;-89
2021/03/21 05:32:14;;;;;;;0.73;0.68;;;;;;;4.67;39.87;94432.94;4966332;28;20081;-87
2021/03/21 05:34:43;;;;;;;0.70;0.70;;;;;;;4.63;39.92;94430.84;4958389;28;20041;-89
2021/03/21 05:37:39;;;;;;;1.10;0.80;;;;;;;4.69;39.57;94441.31;4957942;28;20071;-89
2021/03/21 05:40:37;;;;;;;1.00;0.80;;;;;;;4.66;39.76;94441.63;4989559;28;20055;-89
2021/03/21 05:43:30;;;;;;;0.90;0.70;;;;;;;4.70;39.63;94453.22;4988794;28;20049;-87
2021/03/21 05:46:32;;;;;;;1.23;0.70;;;;;;;4.69;39.68;94464.47;4986664;28;20027;-88
2021/03/21 05:49:19;;;;;;;0.88;0.75;;;;;;;4.69;40.30;94474.78;4981738;28;20082;-88
2021/03/21 05:52:23;;;;;;;0.82;0.77;;;;;;;4.69;40.33;94476.56;4989364;28;20037;-89
2021/03/21 05:55:11;;;;;;;1.30;0.70;;;;;;;4.68;40.16;94475.78;4954050;28;20039;-89
2021/03/21 05:58:14;;;;;;;0.93;0.70;;;;;;;4.73;40.19;94479.63;4938276;28;20069;-88
2021/03/21 06:00:55;;;;;;;0.80;0.68;;;;;;;4.72;40.19;94475.44;4973304;28;20058;-89
2021/03/21 06:03:59;;;;;;;;;;;;;;;4.77;39.82;94478.34;4956078;28;20018;-89
2021/03/21 06:06:27;;;;;;;0.68;0.60;;;;;;;4.78;39.52;94474.78;4973993;28;19917;-89
2021/03/21 06:09:11;;;;;;;0.90;0.68;;;;;;;4.79;39.95;94473.84;4957237;28;20026;-89
2021/03/21 06:12:11;;;;;;;0.70;0.70;;;;;;;4.76;39.81;94476.72;4957483;28;20039;-89
2021/03/21 06:15:05;;;;;;;1.05;0.70;;;;;;;4.79;39.91;94478.97;4957941;28;20031;-88
2021/03/21 06:17:58;;;;;;;0.90;0.52;;;;;;;4.81;40.22;94482.22;4970735;28;20039;-88
2021/03/21 06:20:37;;;;;;;0.63;0.63;;;;;;;4.81;40.04;94495.88;4957185;28;20033;-87
2021/03/21 06:23:28;;;;;;;1.05;0.80;;;;;;;4.84;39.74;94505.09;4941141;28;20102;-88
2021/03/21 06:26:25;;;;;;;0.90;0.80;;;;;;;4.83;40.11;94499.09;4957579;28;20069;-90
2021/03/21 06:29:10;;;;;;;1.00;0.70;;;;;;;4.87;39.90;94509.91;4900418;29;20116;-89
2021/03/21 06:32:01;;;;;;;0.85;0.57;;;;;;;4.88;40.28;94502.03;4917764;29;20059;-89
2021/03/21 06:35:03;;;;;;;1.20;0.65;;;;;;;4.88;39.88;94502.03;4949236;28;20133;-89
2021/03/21 06:37:31;;;;;;;1.10;0.77;;;;;;;4.92;40.50;94505.09;4972948;28;20030;-89
2021/03/21 06:40:24;;;;;;;0.80;0.77;;;;;;;4.95;40.12;94499.63;4973602;28;20027;-89
2021/03/21 06:42:54;;;;;;;0.95;0.70;;;;;;;4.98;40.00;94495.91;4981407;28;20110;-89
2021/03/21 06:45:54;;;;;;;1.00;0.80;;;;;;;5.00;39.97;94489.63;4971633;28;20027;-89
2021/03/21 06:48:22;;;;;;;1.20;0.80;;;;;;;5.02;40.26;94482.53;4968205;28;20033;-90
2021/03/21 06:50:53;;;;;;;1.05;0.85;;;;;;;5.04;40.22;94479.78;4967797;28;20034;-89
2021/03/21 06:53:56;;;;;;;1.08;0.93;;;;;;;5.07;39.70;94469.97;4952252;28;20081;-91
2021/03/21 06:56:30;;;;;;;1.30;1.00;;;;;;;5.11;39.86;94459.34;4973323;28;20129;-91
2021/03/21 06:59:20;;;;;;;1.10;0.75;;;;;;;5.12;39.80;94455.78;4972349;28;20050;-90
2021/03/21 07:02:11;;;;;;;0.80;0.73;;;;;;;5.16;39.59;94457.06;4957206;28;20018;-90
2021/03/21 07:05:25;;;;;;;0.95;0.73;;;;;;;5.18;39.82;94475.75;4969546;28;20039;-88
2021/03/21 07:08:19;;;;;;;1.33;0.80;;;;;;;5.20;39.38;94479.78;5034582;28;20087;-86
2021/03/21 07:11:25;;;;;;;0.77;0.70;;;;;;;5.21;39.78;94478.00;5045049;28;20025;-86
2021/03/21 07:14:09;;;;;;;0.60;0.60;;;;;;;5.27;39.68;94479.94;5014479;28;20028;-87
2021/03/21 07:17:14;;;;;;;0.60;0.60;;;;;;;5.29;39.86;94488.31;5024848;28;20036;-86
2021/03/21 07:20:01;;;;;;;0.75;0.52;;;;;;;5.30;39.84;94487.34;5028535;28;20029;-86
2021/03/21 07:23:04;;;;;;;1.08;0.80;;;;;;;5.36;39.83;94497.00;5007124;28;20140;-87
2021/03/21 07:26:18;;;;;;;0.85;0.70;;;;;;;5.36;39.79;94498.78;5039049;28;20037;-89
2021/03/21 07:29:03;;;;;;;0.82;0.70;;;;;;;5.42;39.50;94500.72;5030321;28;20037;-88
2021/03/21 07:32:08;;;;;;;2.22;0.90;;;;;;;5.45;40.22;94496.03;5004712;28;20052;-88
2021/03/21 07:35:12;;;;;;;1.30;0.80;;;;;;;5.49;39.76;94504.25;5031937;28;20071;-88
2021/03/21 07:38:11;;;;;;;0.93;0.73;;;;;;;5.52;39.98;94503.94;5000868;28;20053;-88
2021/03/21 07:41:20;;;;;;;1.00;0.65;;;;;;;5.57;40.04;94508.59;5035674;28;20029;-87
2021/03/21 07:44:12;;;;;;;1.05;0.80;;;;;;;5.60;39.28;94491.03;4976005;28;20162;-88
2021/03/21 07:46:58;;;;;;;1.17;1.00;;;;;;;5.65;39.88;94493.09;4974601;28;20392;-87
2021/03/21 07:49:39;;;;;;;1.50;0.80;;;;;;;5.68;39.75;94488.41;4955025;28;20030;-87
2021/03/21 07:52:04;;;;;;;1.35;0.98;;;;;;;5.72;40.16;94488.09;4962788;28;20070;-87
2021/03/21 07:54:56;;;;;;;1.40;0.88;;;;;;;5.77;39.62;94485.81;4946377;28;20065;-87
2021/03/21 07:57:28;;;;;;;1.67;1.05;;;;;;;5.81;40.09;94477.56;4977439;28;20026;-87
2021/03/21 07:59:54;;;;;;;1.15;0.80;;;;;;;5.84;39.93;94474.66;4958983;28;20062;-87
2021/03/21 08:02:25;;;;;;;1.00;0.90;;;;;;;5.86;40.05;94472.72;4937221;28;20023;-87
2021/03/21 08:04:59;;;;;;;1.20;0.90;;;;;;;5.92;39.92;94463.53;4980120;28;20048;-87
2021/03/21 08:07:28;;;;;;;1.50;1.13;;;;;;;6.00;39.81;94460.94;4994902;28;20029;-87
2021/03/21 08:09:54;;;;;;;0.90;0.80;;;;;;;6.01;39.47;94453.97;5000641;28;20137;-88
2021/03/21 08:12:27;;;;;;;1.10;0.88;;;;;;;6.07;39.53;94442.97;4965626;28;20038;-87
2021/03/21 08:15:13;;;;;;;1.13;0.80;;;;;;;6.14;39.46;94446.50;5001909;28;20052;-86
2021/03/21 08:17:43;;;;;;;1.20;1.08;;;;;;;6.22;39.69;94448.22;5003014;28;20040;-87
2021/03/21 08:20:21;;;;;;;1.20;1.00;;;;;;;6.16;39.70;94431.63;5033682;28;20032;-87
2021/03/21 08:22:46;;;;;;;0.73;0.70;;;;;;;6.32;39.55;94440.25;5034979;28;20036;-88
2021/03/21 08:25:36;;;;;;;0.88;0.70;;;;;;;6.31;39.34;94434.31;5033937;28;20025;-88
2021/03/21 08:28:09;;;;;;;1.23;0.80;;;;;;;6.39;39.95;94433.44;5036792;28;20088;-86
2021/03/21 08:31:08;;;;;;;1.90;1.05;;;;;;;6.61;39.16;94450.75;5034086;28;20025;-87
2021/03/21 08:33:39;;;;;;;1.48;1.10;;;;;;;6.60;39.22;94435.41;5031898;28;20029;-87
2021/03/21 08:36:39;;;;;;;1.02;0.80;;;;;;;6.74;39.08;94431.28;5002293;28;20067;-88
2021/03/21 08:39:15;;;;;;;0.95;0.70;;;;;;;6.86;39.17;94440.25;4987568;28;20125;-87
2021/03/21 08:42:00;;;;;;;1.40;1.00;;;;;;;6.94;39.55;94442.75;4985347;28;20139;-91
2021/03/21 08:44:31;;;;;;;1.30;0.80;;;;;;;7.01;39.06;94441.09;4942182;28;20030;-91
2021/03/21 08:47:02;;;;;;;1.13;0.80;;;;;;;6.97;39.10;94428.69;4976074;28;20110;-88
2021/03/21 08:49:34;;;;;;;1.20;0.90;;;;;;;7.03;39.05;94423.59;4951371;28;20621;-86
2021/03/21 08:52:00;;;;;;;1.52;0.90;;;;;;;7.16;39.13;94429.94;4957788;28;20042;-86
2021/03/21 08:54:31;;;;;;;1.55;0.93;;;;;;;7.28;38.69;94444.06;4926322;28;20053;-86
2021/03/21 08:57:03;;;;;;;1.13;0.88;;;;;;;7.29;38.88;94437.94;4926368;28;20058;-86
2021/03/21 08:59:41;;;;;;;1.27;1.00;;;;;;;7.40;39.15;94447.03;4966248;28;20034;-86
2021/03/21 09:02:09;;;;;;;1.10;1.00;;;;;;;7.39;38.87;94432.50;4958498;28;20038;-86
2021/03/21 09:07:28;;;;;;;1.75;1.00;;;;;;;7.72;38.99;94456.25;5063221;28;20479;-75
2021/03/21 09:10:23;;;;;;;1.50;1.20;;;;;;;8.02;39.01;94456.25;5030057;28;20032;-75
2021/03/21 09:13:01;;;;;;;1.02;0.93;;;;;;;8.31;39.28;94464.94;5065296;28;20029;-76
2021/03/21 09:15:30;;;;;;;1.17;1.00;;;;;;;8.60;39.03;94470.09;5062796;28;20021;-75
2021/03/21 09:18:01;;;;;;;1.95;1.10;;;;;;;8.89;39.03;94468.41;5052615;28;20067;-77
2021/03/21 09:20:27;;;;;;;1.35;1.05;;;;;;;9.16;38.50;94458.25;5062201;28;20039;-75
2021/03/21 09:22:55;;;;;;;1.90;1.33;;;;;;;9.43;38.32;94451.47;5045961;28;20025;-77
2021/03/21 09:25:32;;;;;;;2.58;1.73;;;;;;;9.70;38.33;94449.03;5030565;28;20036;-75
2021/03/21 09:27:58;;;;;;;2.22;1.50;;;;;;;9.92;37.82;94453.16;5046563;28;20135;-76
2021/03/21 09:30:43;;;;;;;2.53;1.40;;;;;;;10.14;37.49;94450.47;4973027;28;20060;-77
2021/03/21 09:33:16;;;;;;;1.77;1.23;;;;;;;10.34;37.58;94446.19;5047686;28;20045;-75
2021/03/21 09:35:50;;;;;;;1.38;1.20;;;;;;;10.56;37.16;94443.44;5025298;28;20025;-76
2021/03/21 09:38:21;;;;;;;1.95;1.40;;;;;;;10.73;37.71;94449.06;5037688;28;20025;-74
2021/03/21 09:40:54;;;;;;;1.60;1.35;;;;;;;10.90;37.06;94468.50;5027393;28;20048;-75
2021/03/21 09:43:28;;;;;;;1.58;1.40;;;;;;;11.04;36.85;94455.53;5023181;28;20083;-74
2021/03/21 09:46:20;;;;;;;2.17;1.60;;;;;;;11.22;36.92;94447.94;5023821;28;20037;-74
2021/03/21 09:49:27;;;;;;;1.55;1.45;;;;;;;11.37;37.25;94433.94;5009193;28;20053;-77
2021/03/21 09:52:07;;;;;;;1.67;1.50;;;;;;;11.55;36.37;94436.69;4942054;28;20043;-74
2021/03/21 09:54:42;;;;;;;2.42;1.58;;;;;;;11.73;36.50;94434.25;4934779;29;20094;-77
2021/03/21 09:57:17;;;;;;;1.30;1.17;;;;;;;11.96;36.92;94438.25;4914013;29;20067;-79
2021/03/21 10:00:25;;;;;;;1.88;1.50;;;;;;;12.22;36.65;94444.38;4944295;28;20032;-76
2021/03/21 10:03:09;;;;;;;1.83;1.38;;;;;;;12.42;35.93;94447.69;4925541;29;20028;-77
2021/03/21 10:05:43;;;;;;;2.30;1.58;;;;;;;12.51;35.67;94441.25;4907318;29;20047;-77
2021/03/21 10:08:27;;;;;;;3.15;1.75;;;;;;;12.52;35.18;94437.63;4940228;28;20077;-77
2021/03/21 10:11:00;;;;;;;3.17;1.80;;;;;;;12.49;35.24;94442.47;4912770;29;20325;-78
2021/03/21 10:13:32;;;;;;;2.35;1.77;;;;;;;12.48;35.42;94454.69;4908765;29;20076;-77
2021/03/21 10:16:20;;;;;;;2.50;1.80;;;;;;;12.41;35.44;94451.31;4888123;29;20048;-77
2021/03/21 10:19:11;;;;;;;2.97;1.92;;;;;;;12.37;35.29;94438.91;4880714;29;20040;-73
2021/03/21 10:21:42;;;;;;;2.70;1.83;;;;;;;12.25;35.14;94441.34;4892443;29;20032;-73
2021/03/21 10:24:31;;;;;;;1.52;1.25;;;;;;;12.08;35.18;94431.38;4896071;29;20040;-73
2021/03/21 10:27:23;;;;;;;1.90;1.45;;;;;;;11.84;33.99;94432.03;4903435;28;20058;-74
2021/03/21 10:30:14;;;;;;;2.00;1.60;;;;;;;11.59;34.24;94440.50;5024517;28;20041;-76
2021/03/21 10:32:44;;;;;;;1.73;1.45;;;;;;;11.37;34.13;94434.72;5025206;28;20026;-75
2021/03/21 10:35:32;;;;;;;2.33;1.55;;;;;;;11.24;34.68;94442.53;4992349;28;20042;-73
2021/03/21 10:38:03;;;;;;;1.98;1.63;;;;;;;11.12;35.21;94448.34;5013858;28;20033;-74
2021/03/21 10:40:34;;;;;;;1.92;1.20;;;;;;;11.05;34.86;94447.53;4998816;28;20049;-74
2021/03/21 10:43:04;;;;;;;2.30;1.58;;;;;;;11.00;35.24;94439.50;5030180;28;20104;-74
2021/03/21 10:45:35;;;;;;;2.13;1.48;;;;;;;10.99;34.87;94437.13;5009794;28;20021;-73
2021/03/21 10:48:15;;;;;;;1.40;1.20;;;;;;;10.96;35.53;94438.31;5031180;28;20168;-74
2021/03/21 10:51:01;;;;;;;1.70;1.40;;;;;;;10.94;35.45;94435.88;5014141;28;20163;-74
2021/03/21 10:53:27;;;;;;;1.90;1.40;;;;;;;10.99;35.55;94439.72;4971861;28;20041;-74
2021/03/21 10:56:09;;;;;;;1.45;1.20;;;;;;;11.14;35.32;94442.94;5030572;28;20033;-77
2021/03/21 10:58:39;;;;;;;1.60;1.17;;;;;;;11.25;35.12;94449.31;4998395;28;20049;-75
2021/03/21 11:01:25;;;;;;;1.73;1.27;;;;;;;11.29;35.12;94440.94;5013523;28;20092;-76
2021/03/21 11:04:19;;;;;;;1.60;1.30;;;;;;;11.28;35.13;94435.91;5009675;28;20075;-75
2021/03/21 11:07:12;;;;;;;2.45;1.55;;;;;;;11.22;34.86;94427.09;5030894;28;20060;-75
2021/03/21 11:09:49;;;;;;;1.40;1.13;;;;;;;11.12;35.00;94424.13;5021911;28;20087;-75
2021/03/21 11:12:14;;;;;;;1.70;1.30;;;;;;;11.09;34.02;94429.72;5008895;28;20056;-75
2021/03/21 11:14:40;;;;;;;1.70;1.30;;;;;;;11.04;34.16;94437.31;5014800;28;20171;-76
2021/03/21 11:17:36;;;;;;;1.45;1.10;;;;;;;10.99;34.68;94435.31;5013347;28;20033;-75
2021/03/21 11:20:16;;;;;;;1.05;0.90;;;;;;;10.91;34.51;94431.09;5003254;28;20038;-76
2021/03/21 11:22:42;;;;;;;1.55;1.23;;;;;;;10.90;34.91;94433.91;4974664;28;20036;-78
2021/03/21 11:25:14;;;;;;;1.30;1.10;;;;;;;10.89;34.77;94435.72;4997067;28;20034;-78
2021/03/21 11:27:40;;;;;;;1.40;1.00;;;;;;;10.85;34.75;94426.69;5008877;28;20044;-79
2021/03/21 11:30:29;;;;;;;1.48;1.20;;;;;;;10.83;34.27;94426.06;5001121;28;20044;-76
2021/03/21 11:33:20;;;;;;;1.42;1.20;;;;;;;10.81;34.24;94425.47;4997099;28;20069;-79
2021/03/21 11:35:46;;;;;;;2.38;1.15;;;;;;;10.75;34.72;94427.06;5023398;28;20057;-77
2021/03/21 11:38:31;;;;;;;1.48;0.93;;;;;;;10.69;35.39;94420.06;5007432;28;20042;-80
2021/03/21 11:40:59;;;;;;;2.25;1.17;;;;;;;10.59;34.68;94421.47;5001530;28;20061;-76
2021/03/21 11:43:28;;;;;;;1.33;1.10;;;;;;;10.46;34.70;94420.41;4981921;28;20124;-79
2021/03/21 11:45:54;;;;;;;1.25;1.13;;;;;;;10.38;34.48;94415.41;4989377;28;20138;-79
2021/03/21 11:48:36;;;;;;;2.13;1.60;;;;;;;10.27;33.93;94402.94;5015161;28;20116;-80
2021/03/21 11:51:02;;;;;;;2.33;1.48;;;;;;;10.15;34.38;94406.09;4968177;28;20049;-77
2021/03/21 11:53:35;;;;;;;1.92;1.23;;;;;;;10.05;34.73;94404.84;4981740;28;20030;-78
2021/03/21 11:56:25;;;;;;;2.45;1.25;;;;;;;10.00;34.60;94396.84;4982909;28;20045;-77
2021/03/21 11:58:56;;;;;;;1.55;1.20;;;;;;;9.93;34.99;94400.19;5012498;28;20030;-78
2021/03/21 12:01:35;;;;;;;1.15;1.05;;;;;;;9.88;35.35;94401.78;5011625;28;20033;-79
2021/03/21 12:04:09;;;;;;;1.52;1.15;;;;;;;9.79;35.26;94393.34;5012103;28;20057;-79
2021/03/21 12:06:52;;;;;;;1.60;1.25;;;;;;;9.69;35.17;94393.72;5009039;28;20089;-79
2021/03/21 12:09:29;;;;;;;1.60;1.40;;;;;;;9.62;35.43;94395.47;5001672;28;20065;-78
2021/03/21 12:11:56;;;;;;;1.50;1.20;;;;;;;9.55;35.55;94394.63;5010272;28;20041;-79
2021/03/21 12:14:30;;;;;;;2.13;1.60;;;;;;;9.48;35.33;94401.56;4996732;28;20034;-75
2021/03/21 12:17:17;;;;;;;1.70;1.42;;;;;;;9.43;35.39;94407.34;5012451;28;20032;-76
2021/03/21 12:19:43;;;;;;;1.77;1.60;;;;;;;9.36;35.00;94399.50;5016469;28;20045;-78
2021/03/21 12:22:39;;;;;;;2.17;1.58;;;;;;;9.26;35.15;94393.84;4992889;28;20040;-79
2021/03/21 12:25:27;;;;;;;2.20;1.80;;;;;;;9.12;34.91;94386.94;4995069;28;20026;-74
2021/03/21 12:28:02;;;;;;;2.35;1.55;;;;;;;9.03;35.01;94369.94;5001860;28;20038;-74
2021/03/21 12:30:48;;;;;;;2.30;1.52;;;;;;;8.94;35.37;94370.06;4995445;28;20310;-79
2021/03/21 12:33:33;;;;;;;2.20;1.40;;;;;;;8.82;35.43;94353.44;4998437;28;20040;-79
2021/03/21 12:36:08;;;;;;;2.40;1.30;;;;;;;8.82;35.94;94353.44;4979228;28;20272;-75
2021/03/21 12:38:36;;;;;;;2.00;1.40;;;;;;;8.83;36.16;94351.63;5011390;28;20021;-75
2021/03/21 12:41:36;;;;;;;1.58;1.38;;;;;;;8.88;35.90;94363.03;4994208;28;20022;-75
2021/03/21 12:44:27;;;;;;;2.10;1.40;;;;;;;8.97;36.24;94363.72;5008679;28;20018;-78